Moses Lake, Washington
Current Conditions -  °F | °C
As of 5:52 PM on Friday 19 Dec 2014 (Local Time) from KMWH Reporting Station
Clear Clear  
Wind Chill: 34°   Ceiling: Unl
Heat Index: 40°   Visibility: 10mi
Dew Point: 36°   Wind: 8mph
Humidity: 86%   Direction: 200°SSW
Pressure: 29.98"   Gusts: NA
Location:  47.13°N, 119.27°W
Report Text: KMWH 200152Z 20007KT 10SM CLR 04/02 A2998 RMK AO2 SLP161 T00440022
Loading
Personal Weather Stations






























Interactive Weather Map New forecast layout! Learn more

10-Day Weather Forecast

Advertisements
Track Severe Weather on mobile